sensor_id;sensor_type;location;lat;lon;timestamp;P1;durP1;ratioP1;P2;durP2;ratioP2
66927;SDS011;59882;45.624;11.698;2023-03-24T00:01:01;75.87;;;54.93;;
66927;SDS011;59882;45.624;11.698;2023-03-24T00:03:28;77.68;;;56.92;;
66927;SDS011;59882;45.624;11.698;2023-03-24T00:05:58;76.57;;;57.83;;
66927;SDS011;59882;45.624;11.698;2023-03-24T00:08:29;73.53;;;54.17;;
66927;SDS011;59882;45.624;11.698;2023-03-24T00:11:02;76.20;;;55.75;;
66927;SDS011;59882;45.624;11.698;2023-03-24T00:13:35;79.17;;;54.70;;
66927;SDS011;59882;45.624;11.698;2023-03-24T00:16:02;89.97;;;56.22;;
66927;SDS011;59882;45.624;11.698;2023-03-24T00:18:32;79.68;;;56.50;;
66927;SDS011;59882;45.624;11.698;2023-03-24T00:20:58;77.22;;;57.38;;
66927;SDS011;59882;45.624;11.698;2023-03-24T00:23:25;77.43;;;53.85;;
66927;SDS011;59882;45.624;11.698;2023-03-24T00:28:28;82.63;;;58.60;;
66927;SDS011;59882;45.624;11.698;2023-03-24T00:30:58;75.38;;;54.38;;
66927;SDS011;59882;45.624;11.698;2023-03-24T00:33:26;75.68;;;53.67;;
66927;SDS011;59882;45.624;11.698;2023-03-24T00:35:52;81.93;;;54.50;;
66927;SDS011;59882;45.624;11.698;2023-03-24T00:38:18;78.17;;;54.97;;
66927;SDS011;59882;45.624;11.698;2023-03-24T00:40:45;72.50;;;52.38;;
66927;SDS011;59882;45.624;11.698;2023-03-24T00:43:12;71.75;;;53.65;;
66927;SDS011;59882;45.624;11.698;2023-03-24T00:45:38;66.67;;;52.63;;
66927;SDS011;59882;45.624;11.698;2023-03-24T00:48:10;70.70;;;52.25;;
66927;SDS011;59882;45.624;11.698;2023-03-24T00:50:45;68.70;;;50.25;;
66927;SDS011;59882;45.624;11.698;2023-03-24T00:53:13;71.00;;;53.10;;
66927;SDS011;59882;45.624;11.698;2023-03-24T00:55:40;71.82;;;53.35;;
66927;SDS011;59882;45.624;11.698;2023-03-24T00:58:13;71.20;;;52.03;;
66927;SDS011;59882;45.624;11.698;2023-03-24T01:00:45;67.20;;;51.65;;
66927;SDS011;59882;45.624;11.698;2023-03-24T01:03:12;82.10;;;60.17;;
66927;SDS011;59882;45.624;11.698;2023-03-24T01:05:39;83.13;;;59.40;;
66927;SDS011;59882;45.624;11.698;2023-03-24T01:08:05;78.82;;;54.92;;
66927;SDS011;59882;45.624;11.698;2023-03-24T01:10:35;77.07;;;54.73;;
66927;SDS011;59882;45.624;11.698;2023-03-24T01:13:29;75.20;;;54.72;;
66927;SDS011;59882;45.624;11.698;2023-03-24T01:15:55;69.90;;;51.10;;
66927;SDS011;59882;45.624;11.698;2023-03-24T01:18:21;72.87;;;52.87;;
66927;SDS011;59882;45.624;11.698;2023-03-24T01:20:51;72.38;;;50.50;;
66927;SDS011;59882;45.624;11.698;2023-03-24T01:23:19;67.55;;;48.55;;
66927;SDS011;59882;45.624;11.698;2023-03-24T01:25:47;71.68;;;52.08;;
66927;SDS011;59882;45.624;11.698;2023-03-24T01:28:15;73.60;;;53.55;;
66927;SDS011;59882;45.624;11.698;2023-03-24T01:30:47;76.57;;;53.03;;
66927;SDS011;59882;45.624;11.698;2023-03-24T01:33:13;75.90;;;53.90;;
66927;SDS011;59882;45.624;11.698;2023-03-24T01:35:39;79.95;;;53.85;;
66927;SDS011;59882;45.624;11.698;2023-03-24T01:38:06;74.47;;;54.00;;
66927;SDS011;59882;45.624;11.698;2023-03-24T01:40:34;76.05;;;53.92;;
66927;SDS011;59882;45.624;11.698;2023-03-24T01:43:02;70.95;;;52.40;;
66927;SDS011;59882;45.624;11.698;2023-03-24T01:51:29;72.77;;;51.10;;
66927;SDS011;59882;45.624;11.698;2023-03-24T01:53:46;71.07;;;51.25;;
66927;SDS011;59882;45.624;11.698;2023-03-24T01:56:16;68.47;;;50.00;;
66927;SDS011;59882;45.624;11.698;2023-03-24T01:58:44;68.50;;;50.00;;
66927;SDS011;59882;45.624;11.698;2023-03-24T02:01:13;63.80;;;48.83;;
66927;SDS011;59882;45.624;11.698;2023-03-24T02:03:39;71.63;;;51.65;;
66927;SDS011;59882;45.624;11.698;2023-03-24T02:06:06;73.20;;;50.85;;
66927;SDS011;59882;45.624;11.698;2023-03-24T02:11:18;69.18;;;51.20;;
66927;SDS011;59882;45.624;11.698;2023-03-24T02:13:44;65.60;;;49.50;;
66927;SDS011;59882;45.624;11.698;2023-03-24T02:19:04;66.20;;;47.03;;
66927;SDS011;59882;45.624;11.698;2023-03-24T02:29:51;67.57;;;49.65;;
66927;SDS011;59882;45.624;11.698;2023-03-24T02:35:29;62.03;;;46.60;;
66927;SDS011;59882;45.624;11.698;2023-03-24T02:38:14;69.45;;;48.97;;
66927;SDS011;59882;45.624;11.698;2023-03-24T02:52:03;69.00;;;52.03;;
66927;SDS011;59882;45.624;11.698;2023-03-24T02:54:45;71.37;;;50.10;;
66927;SDS011;59882;45.624;11.698;2023-03-24T02:57:33;67.07;;;49.97;;
66927;SDS011;59882;45.624;11.698;2023-03-24T03:00:23;65.47;;;49.67;;
66927;SDS011;59882;45.624;11.698;2023-03-24T03:02:58;67.35;;;49.90;;
66927;SDS011;59882;45.624;11.698;2023-03-24T03:05:38;71.13;;;51.58;;
66927;SDS011;59882;45.624;11.698;2023-03-24T03:08:09;72.00;;;50.57;;
66927;SDS011;59882;45.624;11.698;2023-03-24T03:10:39;66.38;;;47.35;;
66927;SDS011;59882;45.624;11.698;2023-03-24T03:13:42;66.07;;;52.40;;
66927;SDS011;59882;45.624;11.698;2023-03-24T03:16:06;72.78;;;51.67;;
66927;SDS011;59882;45.624;11.698;2023-03-24T03:18:59;65.70;;;48.67;;
66927;SDS011;59882;45.624;11.698;2023-03-24T03:21:28;67.83;;;50.03;;
66927;SDS011;59882;45.624;11.698;2023-03-24T03:24:02;68.30;;;51.17;;
66927;SDS011;59882;45.624;11.698;2023-03-24T03:26:33;66.38;;;48.10;;
66927;SDS011;59882;45.624;11.698;2023-03-24T03:29:07;72.30;;;50.28;;
66927;SDS011;59882;45.624;11.698;2023-03-24T03:31:41;68.18;;;51.42;;
66927;SDS011;59882;45.624;11.698;2023-03-24T03:37:07;65.80;;;49.58;;
66927;SDS011;59882;45.624;11.698;2023-03-24T03:39:36;70.28;;;51.38;;
66927;SDS011;59882;45.624;11.698;2023-03-24T03:42:09;74.55;;;51.40;;
66927;SDS011;59882;45.624;11.698;2023-03-24T03:44:35;71.47;;;50.63;;
66927;SDS011;59882;45.624;11.698;2023-03-24T03:47:00;66.20;;;48.92;;
66927;SDS011;59882;45.624;11.698;2023-03-24T03:49:26;66.80;;;49.90;;
66927;SDS011;59882;45.624;11.698;2023-03-24T03:51:52;69.15;;;49.95;;
66927;SDS011;59882;45.624;11.698;2023-03-24T03:54:19;74.25;;;52.55;;
66927;SDS011;59882;45.624;11.698;2023-03-24T03:56:47;71.80;;;52.60;;
66927;SDS011;59882;45.624;11.698;2023-03-24T03:59:28;68.80;;;52.53;;
66927;SDS011;59882;45.624;11.698;2023-03-24T04:04:52;70.20;;;52.63;;
66927;SDS011;59882;45.624;11.698;2023-03-24T04:10:42;74.82;;;51.88;;
66927;SDS011;59882;45.624;11.698;2023-03-24T04:16:13;74.55;;;51.80;;
66927;SDS011;59882;45.624;11.698;2023-03-24T04:35:03;59.50;;;45.50;;
66927;SDS011;59882;45.624;11.698;2023-03-24T04:37:34;59.50;;;45.25;;
66927;SDS011;59882;45.624;11.698;2023-03-24T04:40:09;66.20;;;51.27;;
66927;SDS011;59882;45.624;11.698;2023-03-24T04:42:39;65.97;;;46.92;;
66927;SDS011;59882;45.624;11.698;2023-03-24T04:45:09;75.32;;;50.30;;
66927;SDS011;59882;45.624;11.698;2023-03-24T04:47:39;67.00;;;50.75;;
66927;SDS011;59882;45.624;11.698;2023-03-24T04:50:10;75.40;;;53.47;;
66927;SDS011;59882;45.624;11.698;2023-03-24T04:52:40;67.33;;;49.20;;
66927;SDS011;59882;45.624;11.698;2023-03-24T04:55:21;68.80;;;51.28;;
66927;SDS011;59882;45.624;11.698;2023-03-24T04:57:53;70.35;;;51.70;;
66927;SDS011;59882;45.624;11.698;2023-03-24T05:00:19;70.43;;;52.47;;
66927;SDS011;59882;45.624;11.698;2023-03-24T05:02:45;66.78;;;49.38;;
66927;SDS011;59882;45.624;11.698;2023-03-24T05:05:10;64.37;;;47.73;;
66927;SDS011;59882;45.624;11.698;2023-03-24T05:07:36;66.97;;;52.05;;
66927;SDS011;59882;45.624;11.698;2023-03-24T05:10:02;67.83;;;47.27;;
66927;SDS011;59882;45.624;11.698;2023-03-24T05:12:28;56.80;;;43.40;;
66927;SDS011;59882;45.624;11.698;2023-03-24T05:14:53;57.30;;;42.20;;
66927;SDS011;59882;45.624;11.698;2023-03-24T05:17:19;54.75;;;43.15;;
66927;SDS011;59882;45.624;11.698;2023-03-24T05:19:44;54.40;;;43.57;;
66927;SDS011;59882;45.624;11.698;2023-03-24T05:22:10;57.58;;;42.58;;
66927;SDS011;59882;45.624;11.698;2023-03-24T05:24:36;57.67;;;43.63;;
66927;SDS011;59882;45.624;11.698;2023-03-24T05:27:01;57.43;;;42.40;;
66927;SDS011;59882;45.624;11.698;2023-03-24T05:29:27;62.40;;;44.03;;
66927;SDS011;59882;45.624;11.698;2023-03-24T05:31:52;58.43;;;42.00;;
66927;SDS011;59882;45.624;11.698;2023-03-24T05:34:19;66.40;;;47.42;;
66927;SDS011;59882;45.624;11.698;2023-03-24T05:36:46;66.35;;;48.33;;
66927;SDS011;59882;45.624;11.698;2023-03-24T05:39:11;68.50;;;46.80;;
66927;SDS011;59882;45.624;11.698;2023-03-24T05:41:37;66.23;;;50.23;;
66927;SDS011;59882;45.624;11.698;2023-03-24T05:44:03;68.53;;;49.63;;
66927;SDS011;59882;45.624;11.698;2023-03-24T05:46:28;74.87;;;52.50;;
66927;SDS011;59882;45.624;11.698;2023-03-24T05:48:54;69.03;;;49.60;;
66927;SDS011;59882;45.624;11.698;2023-03-24T05:51:19;69.67;;;51.50;;
66927;SDS011;59882;45.624;11.698;2023-03-24T05:53:45;74.97;;;53.70;;
66927;SDS011;59882;45.624;11.698;2023-03-24T05:56:11;75.47;;;51.78;;
66927;SDS011;59882;45.624;11.698;2023-03-24T05:58:36;71.13;;;53.47;;
66927;SDS011;59882;45.624;11.698;2023-03-24T06:01:09;74.13;;;51.55;;
66927;SDS011;59882;45.624;11.698;2023-03-24T06:03:36;68.20;;;50.33;;
66927;SDS011;59882;45.624;11.698;2023-03-24T06:06:06;73.10;;;52.75;;
66927;SDS011;59882;45.624;11.698;2023-03-24T06:08:33;68.30;;;50.45;;
66927;SDS011;59882;45.624;11.698;2023-03-24T06:11:00;77.93;;;56.00;;
66927;SDS011;59882;45.624;11.698;2023-03-24T06:13:27;74.95;;;54.05;;
66927;SDS011;59882;45.624;11.698;2023-03-24T06:15:54;75.72;;;55.17;;
66927;SDS011;59882;45.624;11.698;2023-03-24T06:18:22;71.95;;;52.63;;
66927;SDS011;59882;45.624;11.698;2023-03-24T06:20:50;76.63;;;53.75;;
66927;SDS011;59882;45.624;11.698;2023-03-24T06:23:20;73.43;;;53.73;;
66927;SDS011;59882;45.624;11.698;2023-03-24T06:25:51;74.25;;;52.78;;
66927;SDS011;59882;45.624;11.698;2023-03-24T06:28:19;77.00;;;54.80;;
66927;SDS011;59882;45.624;11.698;2023-03-24T06:30:45;82.40;;;56.63;;
66927;SDS011;59882;45.624;11.698;2023-03-24T06:33:13;83.55;;;56.92;;
66927;SDS011;59882;45.624;11.698;2023-03-24T06:35:38;84.23;;;57.30;;
66927;SDS011;59882;45.624;11.698;2023-03-24T06:38:04;84.85;;;60.35;;
66927;SDS011;59882;45.624;11.698;2023-03-24T06:40:31;90.25;;;62.90;;
66927;SDS011;59882;45.624;11.698;2023-03-24T06:42:57;95.07;;;68.65;;
66927;SDS011;59882;45.624;11.698;2023-03-24T06:45:22;98.13;;;69.83;;
66927;SDS011;59882;45.624;11.698;2023-03-24T06:47:48;96.20;;;68.20;;
66927;SDS011;59882;45.624;11.698;2023-03-24T06:50:20;94.87;;;68.37;;
66927;SDS011;59882;45.624;11.698;2023-03-24T06:52:47;84.15;;;63.60;;
66927;SDS011;59882;45.624;11.698;2023-03-24T06:55:12;88.40;;;64.80;;
66927;SDS011;59882;45.624;11.698;2023-03-24T06:57:38;91.20;;;65.30;;
66927;SDS011;59882;45.624;11.698;2023-03-24T07:00:04;93.97;;;62.80;;
66927;SDS011;59882;45.624;11.698;2023-03-24T07:02:32;85.53;;;63.00;;
66927;SDS011;59882;45.624;11.698;2023-03-24T07:05:00;87.65;;;60.30;;
66927;SDS011;59882;45.624;11.698;2023-03-24T07:07:30;85.90;;;61.47;;
66927;SDS011;59882;45.624;11.698;2023-03-24T07:09:56;92.68;;;62.80;;
66927;SDS011;59882;45.624;11.698;2023-03-24T07:12:22;99.03;;;66.53;;
66927;SDS011;59882;45.624;11.698;2023-03-24T07:14:48;90.45;;;62.53;;
66927;SDS011;59882;45.624;11.698;2023-03-24T07:17:13;89.10;;;66.63;;
66927;SDS011;59882;45.624;11.698;2023-03-24T07:19:39;95.00;;;67.65;;
66927;SDS011;59882;45.624;11.698;2023-03-24T07:22:05;87.83;;;65.30;;
66927;SDS011;59882;45.624;11.698;2023-03-24T07:24:32;94.85;;;68.50;;
66927;SDS011;59882;45.624;11.698;2023-03-24T07:27:00;93.22;;;67.55;;
66927;SDS011;59882;45.624;11.698;2023-03-24T07:29:25;93.78;;;67.30;;
66927;SDS011;59882;45.624;11.698;2023-03-24T07:31:51;93.77;;;68.07;;
66927;SDS011;59882;45.624;11.698;2023-03-24T07:34:18;97.68;;;68.93;;
66927;SDS011;59882;45.624;11.698;2023-03-24T07:36:44;84.88;;;66.18;;
66927;SDS011;59882;45.624;11.698;2023-03-24T07:39:10;86.93;;;65.50;;
66927;SDS011;59882;45.624;11.698;2023-03-24T07:41:37;87.25;;;65.68;;
66927;SDS011;59882;45.624;11.698;2023-03-24T07:44:03;80.38;;;60.05;;
66927;SDS011;59882;45.624;11.698;2023-03-24T07:46:29;81.05;;;61.65;;
66927;SDS011;59882;45.624;11.698;2023-03-24T07:48:54;77.57;;;57.93;;
66927;SDS011;59882;45.624;11.698;2023-03-24T07:51:20;75.00;;;56.17;;
66927;SDS011;59882;45.624;11.698;2023-03-24T07:53:46;74.63;;;58.20;;
66927;SDS011;59882;45.624;11.698;2023-03-24T07:56:12;67.68;;;52.00;;
66927;SDS011;59882;45.624;11.698;2023-03-24T07:58:38;67.65;;;49.33;;
66927;SDS011;59882;45.624;11.698;2023-03-24T08:01:07;63.33;;;48.30;;
66927;SDS011;59882;45.624;11.698;2023-03-24T08:03:34;73.55;;;50.90;;
66927;SDS011;59882;45.624;11.698;2023-03-24T08:06:00;60.45;;;45.53;;
66927;SDS011;59882;45.624;11.698;2023-03-24T08:08:27;65.45;;;48.65;;
66927;SDS011;59882;45.624;11.698;2023-03-24T08:10:53;62.50;;;47.43;;
66927;SDS011;59882;45.624;11.698;2023-03-24T08:13:19;62.35;;;46.80;;
66927;SDS011;59882;45.624;11.698;2023-03-24T08:15:44;63.50;;;46.40;;
66927;SDS011;59882;45.624;11.698;2023-03-24T08:18:10;65.97;;;48.77;;
66927;SDS011;59882;45.624;11.698;2023-03-24T08:20:35;60.08;;;46.28;;
66927;SDS011;59882;45.624;11.698;2023-03-24T08:23:01;66.33;;;48.00;;
66927;SDS011;59882;45.624;11.698;2023-03-24T08:25:28;64.55;;;48.30;;
66927;SDS011;59882;45.624;11.698;2023-03-24T08:27:55;65.07;;;47.90;;
66927;SDS011;59882;45.624;11.698;2023-03-24T08:30:22;64.78;;;47.50;;
66927;SDS011;59882;45.624;11.698;2023-03-24T08:32:53;61.90;;;47.28;;
66927;SDS011;59882;45.624;11.698;2023-03-24T08:35:25;61.07;;;46.27;;
66927;SDS011;59882;45.624;11.698;2023-03-24T08:37:57;61.63;;;44.75;;
66927;SDS011;59882;45.624;11.698;2023-03-24T08:40:24;64.05;;;46.03;;
66927;SDS011;59882;45.624;11.698;2023-03-24T08:42:51;61.28;;;45.55;;
66927;SDS011;59882;45.624;11.698;2023-03-24T08:45:19;62.58;;;47.97;;
66927;SDS011;59882;45.624;11.698;2023-03-24T08:47:47;60.07;;;43.33;;
66927;SDS011;59882;45.624;11.698;2023-03-24T08:50:14;59.25;;;45.30;;
66927;SDS011;59882;45.624;11.698;2023-03-24T08:52:40;60.20;;;45.25;;
66927;SDS011;59882;45.624;11.698;2023-03-24T08:55:06;57.65;;;44.78;;
66927;SDS011;59882;45.624;11.698;2023-03-24T08:57:34;60.70;;;42.73;;
66927;SDS011;59882;45.624;11.698;2023-03-24T09:00:00;61.72;;;45.30;;
66927;SDS011;59882;45.624;11.698;2023-03-24T09:02:26;62.97;;;45.40;;
66927;SDS011;59882;45.624;11.698;2023-03-24T09:04:51;63.07;;;46.40;;
66927;SDS011;59882;45.624;11.698;2023-03-24T09:07:18;64.10;;;44.53;;
66927;SDS011;59882;45.624;11.698;2023-03-24T09:09:45;62.72;;;46.10;;
66927;SDS011;59882;45.624;11.698;2023-03-24T09:12:10;64.87;;;45.90;;
66927;SDS011;59882;45.624;11.698;2023-03-24T09:14:36;62.38;;;46.75;;
66927;SDS011;59882;45.624;11.698;2023-03-24T09:17:02;64.43;;;46.80;;
66927;SDS011;59882;45.624;11.698;2023-03-24T09:19:27;66.77;;;48.23;;
66927;SDS011;59882;45.624;11.698;2023-03-24T09:21:53;66.47;;;49.17;;
66927;SDS011;59882;45.624;11.698;2023-03-24T09:24:19;66.63;;;50.03;;
66927;SDS011;59882;45.624;11.698;2023-03-24T09:26:44;68.78;;;48.28;;
66927;SDS011;59882;45.624;11.698;2023-03-24T09:29:10;70.18;;;53.08;;
66927;SDS011;59882;45.624;11.698;2023-03-24T09:31:36;72.37;;;53.33;;
66927;SDS011;59882;45.624;11.698;2023-03-24T09:34:01;74.50;;;53.93;;
66927;SDS011;59882;45.624;11.698;2023-03-24T09:36:27;72.88;;;52.85;;
66927;SDS011;59882;45.624;11.698;2023-03-24T09:38:53;77.97;;;54.38;;
66927;SDS011;59882;45.624;11.698;2023-03-24T09:41:28;67.20;;;53.30;;
66927;SDS011;59882;45.624;11.698;2023-03-24T09:43:59;71.25;;;51.67;;
66927;SDS011;59882;45.624;11.698;2023-03-24T09:46:34;71.95;;;54.45;;
66927;SDS011;59882;45.624;11.698;2023-03-24T09:49:05;72.38;;;50.78;;
66927;SDS011;59882;45.624;11.698;2023-03-24T09:51:37;67.70;;;50.72;;
66927;SDS011;59882;45.624;11.698;2023-03-24T09:56:32;67.32;;;50.22;;
66927;SDS011;59882;45.624;11.698;2023-03-24T09:59:05;69.57;;;51.77;;
66927;SDS011;59882;45.624;11.698;2023-03-24T10:01:36;71.55;;;54.83;;
66927;SDS011;59882;45.624;11.698;2023-03-24T10:04:02;72.22;;;55.05;;
66927;SDS011;59882;45.624;11.698;2023-03-24T10:06:35;77.00;;;55.10;;
66927;SDS011;59882;45.624;11.698;2023-03-24T10:09:07;69.27;;;53.70;;
66927;SDS011;59882;45.624;11.698;2023-03-24T10:14:34;72.20;;;55.05;;
66927;SDS011;59882;45.624;11.698;2023-03-24T10:20:04;73.05;;;55.72;;
66927;SDS011;59882;45.624;11.698;2023-03-24T10:25:48;76.82;;;56.90;;
66927;SDS011;59882;45.624;11.698;2023-03-24T10:31:07;89.47;;;62.17;;
66927;SDS011;59882;45.624;11.698;2023-03-24T10:33:40;103.47;;;71.55;;
66927;SDS011;59882;45.624;11.698;2023-03-24T10:36:12;96.37;;;64.53;;
66927;SDS011;59882;45.624;11.698;2023-03-24T10:38:40;77.40;;;56.65;;
66927;SDS011;59882;45.624;11.698;2023-03-24T10:41:06;72.05;;;52.22;;
66927;SDS011;59882;45.624;11.698;2023-03-24T10:43:34;70.80;;;53.42;;
66927;SDS011;59882;45.624;11.698;2023-03-24T10:46:00;87.70;;;56.93;;
66927;SDS011;59882;45.624;11.698;2023-03-24T10:51:31;65.75;;;49.42;;
66927;SDS011;59882;45.624;11.698;2023-03-24T10:56:48;64.20;;;46.80;;
66927;SDS011;59882;45.624;11.698;2023-03-24T10:59:38;63.83;;;49.38;;
66927;SDS011;59882;45.624;11.698;2023-03-24T11:02:16;65.18;;;47.67;;
66927;SDS011;59882;45.624;11.698;2023-03-24T11:04:56;69.72;;;48.50;;
66927;SDS011;59882;45.624;11.698;2023-03-24T11:07:28;62.85;;;47.63;;
66927;SDS011;59882;45.624;11.698;2023-03-24T11:12:30;62.30;;;44.88;;
66927;SDS011;59882;45.624;11.698;2023-03-24T11:17:59;55.42;;;41.40;;
66927;SDS011;59882;45.624;11.698;2023-03-24T11:23:05;60.33;;;45.83;;
66927;SDS011;59882;45.624;11.698;2023-03-24T11:25:37;56.33;;;44.28;;
66927;SDS011;59882;45.624;11.698;2023-03-24T11:28:06;64.88;;;43.78;;
66927;SDS011;59882;45.624;11.698;2023-03-24T11:30:34;60.03;;;42.83;;
66927;SDS011;59882;45.624;11.698;2023-03-24T11:33:12;54.00;;;41.05;;
66927;SDS011;59882;45.624;11.698;2023-03-24T11:35:44;47.50;;;35.00;;
66927;SDS011;59882;45.624;11.698;2023-03-24T11:38:14;49.97;;;40.10;;
66927;SDS011;59882;45.624;11.698;2023-03-24T11:41:02;56.30;;;41.08;;
66927;SDS011;59882;45.624;11.698;2023-03-24T11:43:30;46.97;;;39.53;;
66927;SDS011;59882;45.624;11.698;2023-03-24T11:46:15;42.38;;;34.67;;
66927;SDS011;59882;45.624;11.698;2023-03-24T11:48:52;44.50;;;34.42;;
66927;SDS011;59882;45.624;11.698;2023-03-24T11:51:25;47.30;;;36.80;;
66927;SDS011;59882;45.624;11.698;2023-03-24T11:53:57;47.92;;;38.65;;
66927;SDS011;59882;45.624;11.698;2023-03-24T11:56:45;45.05;;;35.67;;
66927;SDS011;59882;45.624;11.698;2023-03-24T12:07:37;46.38;;;37.58;;
66927;SDS011;59882;45.624;11.698;2023-03-24T12:10:17;44.25;;;35.47;;
66927;SDS011;59882;45.624;11.698;2023-03-24T12:13:12;42.13;;;35.85;;
66927;SDS011;59882;45.624;11.698;2023-03-24T12:24:02;44.13;;;36.85;;
66927;SDS011;59882;45.624;11.698;2023-03-24T12:26:57;50.42;;;38.58;;
66927;SDS011;59882;45.624;11.698;2023-03-24T12:29:46;45.00;;;36.85;;
66927;SDS011;59882;45.624;11.698;2023-03-24T12:35:22;50.88;;;40.47;;
66927;SDS011;59882;45.624;11.698;2023-03-24T12:38:15;45.10;;;37.83;;
66927;SDS011;59882;45.624;11.698;2023-03-24T12:45:51;43.40;;;37.67;;
66927;SDS011;59882;45.624;11.698;2023-03-24T12:51:15;45.35;;;39.03;;
66927;SDS011;59882;45.624;11.698;2023-03-24T12:54:17;38.42;;;34.47;;
66927;SDS011;59882;45.624;11.698;2023-03-24T12:56:54;40.47;;;36.17;;
66927;SDS011;59882;45.624;11.698;2023-03-24T12:59:31;36.33;;;31.80;;
66927;SDS011;59882;45.624;11.698;2023-03-24T13:04:40;39.50;;;35.30;;
66927;SDS011;59882;45.624;11.698;2023-03-24T13:07:11;41.53;;;37.22;;
66927;SDS011;59882;45.624;11.698;2023-03-24T13:09:42;40.67;;;36.38;;
66927;SDS011;59882;45.624;11.698;2023-03-24T13:20:39;40.20;;;35.70;;
66927;SDS011;59882;45.624;11.698;2023-03-24T13:23:18;37.10;;;33.30;;
66927;SDS011;59882;45.624;11.698;2023-03-24T13:26:16;37.97;;;34.07;;
66927;SDS011;59882;45.624;11.698;2023-03-24T13:31:35;40.45;;;36.40;;
66927;SDS011;59882;45.624;11.698;2023-03-24T13:34:24;36.85;;;33.15;;
66927;SDS011;59882;45.624;11.698;2023-03-24T13:36:56;35.72;;;32.13;;
66927;SDS011;59882;45.624;11.698;2023-03-24T13:39:30;38.17;;;34.07;;
66927;SDS011;59882;45.624;11.698;2023-03-24T13:42:00;33.40;;;30.05;;
66927;SDS011;59882;45.624;11.698;2023-03-24T13:44:29;38.00;;;33.97;;
66927;SDS011;59882;45.624;11.698;2023-03-24T13:47:05;34.47;;;31.17;;
66927;SDS011;59882;45.624;11.698;2023-03-24T13:49:36;35.85;;;32.03;;
66927;SDS011;59882;45.624;11.698;2023-03-24T13:52:03;42.80;;;32.37;;
66927;SDS011;59882;45.624;11.698;2023-03-24T13:54:31;37.42;;;30.05;;
66927;SDS011;59882;45.624;11.698;2023-03-24T13:57:10;35.20;;;31.58;;
66927;SDS011;59882;45.624;11.698;2023-03-24T14:05:11;31.07;;;28.10;;
66927;SDS011;59882;45.624;11.698;2023-03-24T14:10:42;32.60;;;29.20;;
66927;SDS011;59882;45.624;11.698;2023-03-24T14:15:51;28.95;;;26.23;;
66927;SDS011;59882;45.624;11.698;2023-03-24T14:23:36;31.25;;;27.08;;
66927;SDS011;59882;45.624;11.698;2023-03-24T14:26:05;30.63;;;27.20;;
66927;SDS011;59882;45.624;11.698;2023-03-24T14:28:52;28.10;;;25.23;;
66927;SDS011;59882;45.624;11.698;2023-03-24T14:31:20;30.47;;;27.30;;
66927;SDS011;59882;45.624;11.698;2023-03-24T14:38:56;28.03;;;25.23;;
66927;SDS011;59882;45.624;11.698;2023-03-24T14:41:51;29.45;;;26.35;;
66927;SDS011;59882;45.624;11.698;2023-03-24T14:47:15;28.13;;;25.10;;
66927;SDS011;59882;45.624;11.698;2023-03-24T14:49:45;29.25;;;26.23;;
66927;SDS011;59882;45.624;11.698;2023-03-24T14:52:15;28.60;;;25.40;;
66927;SDS011;59882;45.624;11.698;2023-03-24T14:54:58;26.58;;;23.80;;
66927;SDS011;59882;45.624;11.698;2023-03-24T14:57:41;29.60;;;25.60;;
66927;SDS011;59882;45.624;11.698;2023-03-24T15:02:45;28.67;;;25.55;;
66927;SDS011;59882;45.624;11.698;2023-03-24T15:07:41;28.83;;;25.77;;
66927;SDS011;59882;45.624;11.698;2023-03-24T15:10:14;28.55;;;25.27;;
66927;SDS011;59882;45.624;11.698;2023-03-24T15:12:45;32.25;;;27.35;;
66927;SDS011;59882;45.624;11.698;2023-03-24T15:15:16;30.13;;;26.92;;
66927;SDS011;59882;45.624;11.698;2023-03-24T15:17:47;31.37;;;27.13;;
66927;SDS011;59882;45.624;11.698;2023-03-24T15:20:24;32.13;;;27.55;;
66927;SDS011;59882;45.624;11.698;2023-03-24T15:22:52;31.55;;;28.13;;
66927;SDS011;59882;45.624;11.698;2023-03-24T15:25:25;30.70;;;27.45;;
66927;SDS011;59882;45.624;11.698;2023-03-24T15:27:53;31.08;;;27.42;;
66927;SDS011;59882;45.624;11.698;2023-03-24T15:30:20;30.13;;;27.03;;
66927;SDS011;59882;45.624;11.698;2023-03-24T15:32:46;33.13;;;29.48;;
66927;SDS011;59882;45.624;11.698;2023-03-24T15:35:32;36.35;;;29.85;;
66927;SDS011;59882;45.624;11.698;2023-03-24T15:37:58;32.95;;;28.60;;
66927;SDS011;59882;45.624;11.698;2023-03-24T15:42:50;34.75;;;30.98;;
66927;SDS011;59882;45.624;11.698;2023-03-24T15:45:21;33.00;;;29.23;;
66927;SDS011;59882;45.624;11.698;2023-03-24T15:47:49;32.83;;;27.48;;
66927;SDS011;59882;45.624;11.698;2023-03-24T15:50:27;33.00;;;29.43;;
66927;SDS011;59882;45.624;11.698;2023-03-24T15:53:01;33.85;;;30.10;;
66927;SDS011;59882;45.624;11.698;2023-03-24T15:55:33;36.97;;;31.35;;
66927;SDS011;59882;45.624;11.698;2023-03-24T15:58:15;33.08;;;29.48;;
66927;SDS011;59882;45.624;11.698;2023-03-24T16:00:48;31.42;;;27.85;;
66927;SDS011;59882;45.624;11.698;2023-03-24T16:03:18;31.93;;;27.70;;
66927;SDS011;59882;45.624;11.698;2023-03-24T16:05:50;33.13;;;29.52;;
66927;SDS011;59882;45.624;11.698;2023-03-24T16:08:33;41.80;;;30.02;;
66927;SDS011;59882;45.624;11.698;2023-03-24T16:11:07;32.33;;;28.85;;
66927;SDS011;59882;45.624;11.698;2023-03-24T16:13:38;34.90;;;29.83;;
66927;SDS011;59882;45.624;11.698;2023-03-24T16:18:37;34.85;;;28.13;;
66927;SDS011;59882;45.624;11.698;2023-03-24T16:21:14;31.95;;;28.48;;
66927;SDS011;59882;45.624;11.698;2023-03-24T16:23:52;38.20;;;29.20;;
66927;SDS011;59882;45.624;11.698;2023-03-24T16:28:46;33.97;;;27.87;;
66927;SDS011;59882;45.624;11.698;2023-03-24T16:31:18;38.33;;;32.30;;
66927;SDS011;59882;45.624;11.698;2023-03-24T16:33:48;43.67;;;32.22;;
66927;SDS011;59882;45.624;11.698;2023-03-24T16:36:15;44.05;;;32.22;;
66927;SDS011;59882;45.624;11.698;2023-03-24T16:38:43;41.85;;;33.53;;
66927;SDS011;59882;45.624;11.698;2023-03-24T16:41:09;43.20;;;34.77;;
66927;SDS011;59882;45.624;11.698;2023-03-24T16:43:37;45.05;;;35.78;;
66927;SDS011;59882;45.624;11.698;2023-03-24T16:46:16;45.22;;;36.72;;
66927;SDS011;59882;45.624;11.698;2023-03-24T16:48:45;42.75;;;36.08;;
66927;SDS011;59882;45.624;11.698;2023-03-24T16:51:11;45.30;;;36.13;;
66927;SDS011;59882;45.624;11.698;2023-03-24T16:53:38;43.03;;;36.20;;
66927;SDS011;59882;45.624;11.698;2023-03-24T16:56:05;45.40;;;37.67;;
66927;SDS011;59882;45.624;11.698;2023-03-24T16:58:32;48.90;;;38.25;;
66927;SDS011;59882;45.624;11.698;2023-03-24T17:00:58;44.50;;;37.80;;
66927;SDS011;59882;45.624;11.698;2023-03-24T17:03:24;49.90;;;38.08;;
66927;SDS011;59882;45.624;11.698;2023-03-24T17:05:54;50.47;;;38.45;;
66927;SDS011;59882;45.624;11.698;2023-03-24T17:08:20;55.63;;;39.53;;
66927;SDS011;59882;45.624;11.698;2023-03-24T17:10:47;53.33;;;39.57;;
66927;SDS011;59882;45.624;11.698;2023-03-24T17:13:19;52.45;;;36.90;;
66927;SDS011;59882;45.624;11.698;2023-03-24T17:15:46;47.10;;;37.38;;
66927;SDS011;59882;45.624;11.698;2023-03-24T17:18:12;48.05;;;38.47;;